Time;durP1;ratioP1;P1;durP2;ratioP2;P2;SDS_P1;SDS_P2;PMS_P1;PMS_P2;Temp;Humidity;BMP_temperature;BMP_pressure;BME280_temperature;BME280_humidity;BME280_pressure;Samples;Min_cycle;Max_cycle;Signal;HPM_P1;HPM_P2
2022/01/01 00:01:44;;;;;;;22.75;12.78;;;;;;;9.04;100.00;98949.75;4156436;84;21019;-88
2022/01/01 00:07:45;;;;;;;22.60;13.20;;;;;;;9.01;100.00;98951.85;4156951;84;21009;-89
2022/01/01 00:13:47;;;;;;;23.65;13.45;;;;;;;9.00;100.00;98951.65;4156440;84;21063;-89
2022/01/01 00:19:48;;;;;;;20.57;12.68;;;;;;;9.00;100.00;98955.75;4159779;84;20987;-89
2022/01/01 00:25:49;;;;;;;21.73;13.45;;;;;;;8.97;100.00;98952.95;4156464;84;21582;-90
2022/01/01 00:31:51;;;;;;;20.17;12.68;;;;;;;8.97;100.00;98946.12;4155604;84;21566;-89
2022/01/01 00:37:52;;;;;;;22.27;12.23;;;;;;;8.94;100.00;98944.13;4158305;84;21083;-88
2022/01/01 00:43:53;;;;;;;19.07;12.00;;;;;;;8.97;100.00;98953.72;4159362;84;21539;-90
2022/01/01 00:49:55;;;;;;;20.08;12.47;;;;;;;8.97;100.00;98955.08;4194878;84;21035;-88
2022/01/01 00:55:56;;;;;;;19.57;12.35;;;;;;;8.95;100.00;98942.96;4208789;83;21522;-89
2022/01/01 01:01:58;;;;;;;24.20;13.75;;;;;;;8.95;100.00;98947.86;4206289;84;21078;-89
2022/01/01 01:08:00;;;;;;;20.82;13.48;;;;;;;8.91;100.00;98962.00;4210185;83;20971;-90
2022/01/01 01:14:07;;;;;;;22.90;13.20;;;;;;;8.89;100.00;98964.90;4207567;83;21502;-89
2022/01/01 01:20:05;;;;;;;26.45;12.20;;;;;;;8.90;100.00;98963.17;4212251;83;21016;-88
2022/01/01 01:26:08;;;;;;;19.92;11.57;;;;;;;8.90;100.00;98968.62;4205521;83;21082;-87
2022/01/01 01:32:09;;;;;;;24.45;13.08;;;;;;;8.94;100.00;98968.09;4196562;84;20994;-89
2022/01/01 01:38:11;;;;;;;24.95;13.80;;;;;;;8.89;100.00;98971.72;4204278;83;20979;-91
2022/01/01 01:44:35;;;;;;;31.48;16.42;;;;;;;8.92;100.00;98975.09;4206407;83;21002;-90
2022/01/01 01:50:37;;;;;;;28.52;15.70;;;;;;;8.94;100.00;98983.72;4182801;83;20983;-87
2022/01/01 01:56:39;;;;;;;27.10;16.50;;;;;;;8.91;100.00;99007.05;4194934;84;20999;-89
2022/01/01 02:02:40;;;;;;;31.15;17.65;;;;;;;8.91;100.00;99013.88;4192532;84;21050;-88
2022/01/01 02:08:43;;;;;;;29.20;16.85;;;;;;;8.93;100.00;99018.41;4194941;83;21038;-89
2022/01/01 02:20:58;;;;;;;39.35;19.90;;;;;;;8.92;100.00;99035.95;4188840;83;21019;-87
2022/01/01 02:27:00;;;;;;;30.43;17.75;;;;;;;8.92;100.00;99037.31;4185780;83;20991;-88
2022/01/01 02:33:01;;;;;;;29.32;17.70;;;;;;;8.93;100.00;99047.64;4185806;83;21923;-88
2022/01/01 02:39:17;;;;;;;39.65;20.72;;;;;;;8.92;100.00;99053.69;4186380;83;21649;-90
2022/01/01 02:45:20;;;;;;;32.88;20.20;;;;;;;8.95;100.00;99062.52;4185418;83;21040;-88
2022/01/01 02:51:21;;;;;;;33.02;19.62;;;;;;;8.94;100.00;99063.66;4191442;83;21022;-89
2022/01/01 02:57:23;;;;;;;31.27;18.57;;;;;;;8.92;100.00;99067.91;4169288;84;20971;-91
2022/01/01 03:03:24;;;;;;;28.57;17.35;;;;;;;8.94;100.00;99077.30;4188724;83;21066;-90
2022/01/01 03:09:34;;;;;;;29.82;15.30;;;;;;;8.97;100.00;99071.72;4195694;84;21058;-90
2022/01/01 03:15:29;;;;;;;26.85;15.58;;;;;;;9.01;100.00;99073.92;4186849;83;20971;-91
2022/01/01 03:21:30;;;;;;;20.88;13.60;;;;;;;9.04;100.00;99081.39;4195557;83;21024;-90
2022/01/01 03:27:32;;;;;;;25.90;14.80;;;;;;;9.03;100.00;99089.38;4200555;83;21931;-91
2022/01/01 03:33:35;;;;;;;23.32;13.78;;;;;;;9.05;100.00;99089.22;4196508;83;20991;-91
2022/01/01 03:39:41;;;;;;;20.62;13.08;;;;;;;9.08;100.00;99095.91;4180894;84;21590;-90
2022/01/01 03:45:44;;;;;;;23.35;14.10;;;;;;;9.07;100.00;99100.58;4182228;83;20991;-90
2022/01/01 03:51:47;;;;;;;19.62;12.63;;;;;;;9.08;100.00;99115.80;4196405;83;21559;-90
2022/01/01 03:57:49;;;;;;;22.17;12.37;;;;;;;9.09;100.00;99119.33;4186085;83;20967;-90
2022/01/01 04:03:50;;;;;;;21.62;13.00;;;;;;;9.10;100.00;99131.81;4191261;84;21602;-90
2022/01/01 04:09:52;;;;;;;18.60;11.50;;;;;;;9.10;100.00;99129.89;4176092;83;21002;-90
2022/01/01 04:15:53;;;;;;;17.20;11.15;;;;;;;9.10;100.00;99140.01;4194334;84;21504;-90
2022/01/01 04:21:55;;;;;;;16.67;11.28;;;;;;;9.10;100.00;99144.11;4190136;83;20964;-92
2022/01/01 04:34:12;;;;;;;16.07;11.22;;;;;;;9.15;100.00;99139.72;4606850;74;22540;-90
2022/01/01 04:40:14;;;;;;;18.75;10.95;;;;;;;9.10;100.00;99146.84;4523878;77;21506;-89
2022/01/01 04:46:16;;;;;;;15.85;9.60;;;;;;;9.11;100.00;99150.57;4528221;77;21597;-90
2022/01/01 04:52:17;;;;;;;15.28;9.20;;;;;;;9.14;100.00;99157.27;4526651;77;21024;-89
2022/01/01 04:58:19;;;;;;;13.83;8.35;;;;;;;9.15;100.00;99153.38;4525250;77;21081;-90
2022/01/01 05:04:20;;;;;;;13.18;8.18;;;;;;;9.14;100.00;99170.36;4525493;77;21013;-88
2022/01/01 05:10:24;;;;;;;13.53;9.23;;;;;;;9.14;100.00;99166.83;4525044;77;21017;-89
2022/01/01 05:16:26;;;;;;;12.28;8.40;;;;;;;9.15;100.00;99167.84;4530420;77;21596;-89
2022/01/01 05:22:28;;;;;;;15.08;10.20;;;;;;;9.16;100.00;99172.13;4531953;77;21004;-90
2022/01/01 05:28:30;;;;;;;15.65;9.50;;;;;;;9.16;100.00;99170.77;4523229;77;20997;-88
2022/01/01 05:34:31;;;;;;;12.30;8.73;;;;;;;9.19;100.00;99174.14;4525735;77;21005;-91
2022/01/01 05:40:33;;;;;;;12.55;8.20;;;;;;;9.21;100.00;99184.70;4523510;77;21024;-89
2022/01/01 05:46:36;;;;;;;12.65;8.30;;;;;;;9.22;100.00;99186.30;4525567;77;21033;-90
2022/01/01 05:52:43;;;;;;;11.35;7.70;;;;;;;9.25;100.00;99197.88;4524345;77;21029;-88
2022/01/01 05:58:44;;;;;;;10.55;7.37;;;;;;;9.31;100.00;99205.98;4524990;77;21513;-89
2022/01/01 06:04:45;;;;;;;11.48;7.22;;;;;;;9.34;100.00;99222.45;4527450;77;21543;-89
2022/01/01 06:10:47;;;;;;;9.15;6.78;;;;;;;9.37;100.00;99211.36;4524646;77;21080;-89
2022/01/01 06:16:48;;;;;;;11.05;5.67;;;;;;;9.39;100.00;99207.70;4526086;77;21575;-89
2022/01/01 06:22:50;;;;;;;7.62;5.30;;;;;;;9.39;100.00;99211.23;4521706;77;21005;-88
2022/01/01 06:28:51;;;;;;;10.13;4.25;;;;;;;9.38;100.00;99224.66;4522620;77;21053;-89
2022/01/01 06:34:52;;;;;;;8.23;4.08;;;;;;;9.36;100.00;99235.16;4529128;77;21033;-88
2022/01/01 06:40:54;;;;;;;5.87;3.95;;;;;;;9.36;100.00;99235.16;4528321;77;21001;-89
2022/01/01 06:46:55;;;;;;;7.25;3.60;;;;;;;9.36;100.00;99243.95;4523542;77;21791;-90
2022/01/01 06:52:57;;;;;;;20.75;9.53;;;;;;;9.36;100.00;99257.61;4528358;77;21005;-90
2022/01/01 06:58:59;;;;;;;6.12;4.12;;;;;;;9.36;100.00;99267.94;4526714;77;21006;-89
2022/01/01 07:05:00;;;;;;;9.13;4.78;;;;;;;9.39;100.00;99263.72;4520327;77;20994;-90
2022/01/01 07:11:03;;;;;;;6.83;4.42;;;;;;;9.40;100.00;99277.02;4531966;77;21044;-90
2022/01/01 07:17:04;;;;;;;6.85;4.42;;;;;;;9.41;100.00;99284.05;4523236;77;21017;-92
2022/01/01 07:23:06;;;;;;;8.58;5.83;;;;;;;9.40;100.00;99303.54;4521130;77;21072;-88
2022/01/01 07:29:07;;;;;;;9.43;5.70;;;;;;;9.41;100.00;99305.91;4527799;77;21103;-91
2022/01/01 07:35:09;;;;;;;8.85;5.90;;;;;;;9.42;100.00;99314.91;4523567;77;20989;-88
2022/01/01 07:41:11;;;;;;;11.97;7.08;;;;;;;9.44;100.00;99320.81;4525453;77;21057;-90
2022/01/01 07:47:14;;;;;;;11.60;6.90;;;;;;;9.46;100.00;99306.20;4527629;77;21025;-89
2022/01/01 07:53:15;;;;;;;13.48;8.20;;;;;;;9.44;100.00;99331.15;4527012;77;21068;-92
2022/01/01 07:59:17;;;;;;;10.05;6.60;;;;;;;9.50;100.00;99325.64;4525927;77;21072;-91
2022/01/01 08:05:18;;;;;;;10.48;6.55;;;;;;;9.50;100.00;99337.14;4528332;77;20942;-87
2022/01/01 08:11:20;;;;;;;10.32;6.05;;;;;;;9.50;100.00;99343.41;4524647;77;21078;-90
2022/01/01 08:17:24;;;;;;;11.68;6.78;;;;;;;9.51;100.00;99346.91;4522573;77;21017;-89
2022/01/01 08:23:28;;;;;;;8.10;5.47;;;;;;;9.53;100.00;99355.55;4524776;77;21009;-90
2022/01/01 08:29:30;;;;;;;7.92;5.72;;;;;;;9.54;100.00;99355.75;4526530;77;22019;-88
2022/01/01 08:35:33;;;;;;;10.03;6.45;;;;;;;9.52;100.00;99369.00;4549099;77;21020;-89
2022/01/01 08:41:35;;;;;;;13.13;6.37;;;;;;;9.48;100.00;99370.29;4546832;77;21043;-90
2022/01/01 08:47:37;;;;;;;9.98;5.95;;;;;;;9.52;100.00;99367.64;4535466;77;21025;-90
2022/01/01 08:53:38;;;;;;;8.93;5.55;;;;;;;9.58;100.00;99384.53;4532244;78;21028;-90
2022/01/01 08:59:40;;;;;;;10.85;5.22;;;;;;;9.62;100.00;99382.65;4532278;77;21031;-90
2022/01/01 09:05:42;;;;;;;10.10;5.62;;;;;;;9.65;100.00;99385.47;4542462;77;21022;-91
2022/01/01 09:11:44;;;;;;;14.13;7.58;;;;;;;9.66;100.00;99394.47;4545212;77;21107;-88
2022/01/01 09:17:45;;;;;;;10.18;5.60;;;;;;;9.66;100.00;99384.89;4545861;77;20984;-90
2022/01/01 09:23:47;;;;;;;9.58;4.67;;;;;;;9.71;100.00;99390.09;4545875;77;21053;-91
2022/01/01 09:29:48;;;;;;;7.87;4.10;;;;;;;9.74;100.00;99396.97;4546628;77;20996;-90
2022/01/01 09:35:50;;;;;;;7.10;3.77;;;;;;;9.77;100.00;99396.28;4548454;77;21048;-90
2022/01/01 09:41:52;;;;;;;9.88;5.72;;;;;;;9.78;100.00;99401.16;4548893;77;21020;-88
2022/01/01 09:47:54;;;;;;;9.48;5.90;;;;;;;9.83;100.00;99407.70;4552741;77;21029;-89
2022/01/01 09:53:55;;;;;;;11.75;7.30;;;;;;;9.90;100.00;99413.34;4544015;77;21056;-90
2022/01/01 09:59:56;;;;;;;9.45;6.85;;;;;;;9.92;100.00;99415.91;4549649;77;21036;-93
2022/01/01 10:06:16;;;;;;;13.80;7.90;;;;;;;9.91;100.00;99415.70;4543379;77;21524;-94
2022/01/01 10:12:18;;;;;;;16.35;8.60;;;;;;;9.90;100.00;99427.00;4549143;77;21060;-90
2022/01/01 10:18:35;;;;;;;11.90;6.55;;;;;;;9.91;100.00;99426.64;4547346;77;21044;-90
2022/01/01 10:30:57;;;;;;;12.73;9.88;;;;;;;9.97;100.00;99427.13;4543959;77;21056;-91
2022/01/01 10:37:01;;;;;;;15.85;9.93;;;;;;;9.99;100.00;99428.34;4523476;77;21036;-89
2022/01/01 10:43:03;;;;;;;14.15;9.28;;;;;;;10.04;100.00;99428.66;4526486;77;21009;-90
2022/01/01 10:49:51;;;;;;;16.05;10.78;;;;;;;10.08;100.00;99426.80;4525227;77;21068;-89
2022/01/01 10:55:42;;;;;;;16.35;9.80;;;;;;;10.15;100.00;99426.95;4519411;77;21076;-90
2022/01/01 11:01:49;;;;;;;14.13;8.00;;;;;;;10.21;100.00;99434.48;4525512;77;21033;-89
2022/01/01 11:07:52;;;;;;;14.60;7.30;;;;;;;10.20;100.00;99434.28;4525862;77;21034;-91
2022/01/01 11:13:54;;;;;;;11.88;7.70;;;;;;;10.16;100.00;99432.63;4518285;77;21068;-91
2022/01/01 11:19:59;;;;;;;13.93;10.08;;;;;;;10.15;100.00;99430.47;4525064;77;21906;-90
2022/01/01 11:26:01;;;;;;;11.30;8.80;;;;;;;10.11;100.00;99430.19;4526333;77;20997;-91
2022/01/01 11:32:06;;;;;;;16.67;10.05;;;;;;;10.13;100.00;99425.92;4517596;77;21065;-92
2022/01/01 11:38:19;;;;;;;9.10;7.15;;;;;;;10.18;100.00;99426.23;4536468;77;21052;-91
2022/01/01 11:44:31;;;;;;;14.47;9.33;;;;;;;10.21;100.00;99428.24;4529194;77;21021;-90
2022/01/01 11:50:44;;;;;;;19.30;11.65;;;;;;;10.21;100.00;99419.44;4521335;77;21082;-91
2022/01/01 11:56:55;;;;;;;22.77;12.53;;;;;;;10.26;100.00;99424.63;4532699;77;21062;-92
2022/01/01 12:03:13;;;;;;;16.55;10.00;;;;;;;10.32;100.00;99423.77;4544285;77;21053;-92
2022/01/01 12:09:15;;;;;;;14.40;9.43;;;;;;;10.32;100.00;99421.03;4529938;77;21048;-92
2022/01/01 12:15:39;;;;;;;14.68;9.63;;;;;;;10.26;100.00;99431.46;4539463;76;21029;-90
2022/01/01 12:21:41;;;;;;;16.23;11.30;;;;;;;10.19;100.00;99439.55;4532051;77;21069;-90
2022/01/01 12:27:47;;;;;;;17.35;12.75;;;;;;;10.18;100.00;99442.65;4520521;77;21029;-90
2022/01/01 12:33:52;;;;;;;16.27;12.47;;;;;;;10.14;100.00;99448.05;4515132;77;21062;-91
2022/01/01 12:40:07;;;;;;;20.57;13.35;;;;;;;10.13;100.00;99437.46;4516360;77;21818;-93
2022/01/01 12:46:09;;;;;;;22.98;14.47;;;;;;;10.10;100.00;99434.08;4518661;77;21073;-91
2022/01/01 12:52:23;;;;;;;23.47;15.45;;;;;;;10.10;100.00;99436.81;4516327;77;21111;-91
2022/01/01 12:58:24;;;;;;;25.77;16.20;;;;;;;10.08;100.00;99445.39;4513270;77;21059;-92
2022/01/01 13:04:28;;;;;;;20.65;14.13;;;;;;;10.12;100.00;99449.53;4507204;77;21101;-92
2022/01/01 13:10:33;;;;;;;20.17;14.58;;;;;;;10.10;100.00;99462.20;4509008;77;21331;-91
2022/01/01 13:16:35;;;;;;;20.10;14.00;;;;;;;10.10;100.00;99459.47;4514424;77;21042;-91
2022/01/01 13:22:38;;;;;;;22.55;13.28;;;;;;;10.08;100.00;99469.20;4509899;78;21028;-94
2022/01/01 13:28:40;;;;;;;24.07;15.53;;;;;;;10.02;100.00;99475.52;4512642;77;21504;-94
2022/01/01 13:34:50;;;;;;;25.52;17.52;;;;;;;10.02;100.00;99478.82;4519823;77;21037;-89
2022/01/01 13:41:01;;;;;;;24.52;17.05;;;;;;;10.02;100.00;99488.39;4519810;77;20981;-89
2022/01/01 13:47:12;;;;;;;21.73;15.43;;;;;;;9.99;100.00;99488.52;4520756;77;21590;-88
2022/01/01 13:53:14;;;;;;;25.32;15.65;;;;;;;9.98;100.00;99506.09;4521056;77;20994;-94
2022/01/01 13:59:15;;;;;;;19.65;13.43;;;;;;;9.97;100.00;99510.55;4518749;77;21047;-91
2022/01/01 14:05:18;;;;;;;22.15;14.03;;;;;;;9.93;100.00;99510.47;4522022;77;21024;-89
2022/01/01 14:11:19;;;;;;;21.35;14.10;;;;;;;9.90;100.00;99524.86;4521447;77;21046;-89
2022/01/01 14:17:22;;;;;;;20.32;12.88;;;;;;;9.86;100.00;99527.30;4521231;77;21013;-89
2022/01/01 14:23:34;;;;;;;20.85;13.58;;;;;;;9.81;100.00;99543.41;4519789;77;21068;-90
2022/01/01 14:29:36;;;;;;;18.02;13.22;;;;;;;9.77;100.00;99542.55;4523414;77;20990;-89
2022/01/01 14:35:37;;;;;;;23.45;14.35;;;;;;;9.74;100.00;99553.40;4521669;77;21044;-90
2022/01/01 14:41:39;;;;;;;20.68;13.32;;;;;;;9.71;100.00;99558.21;4524620;77;21016;-90
2022/01/01 14:48:03;;;;;;;17.07;12.07;;;;;;;9.70;100.00;99555.24;4525186;77;20989;-89
2022/01/01 14:54:22;;;;;;;16.82;11.53;;;;;;;9.66;100.00;99557.11;4490551;77;22231;-89
2022/01/01 15:00:28;;;;;;;18.98;11.30;;;;;;;9.61;100.00;99568.31;4519994;77;22193;-90
2022/01/01 15:06:30;;;;;;;18.63;11.40;;;;;;;9.58;100.00;99584.86;4523530;77;21009;-89
2022/01/01 15:12:37;;;;;;;17.48;11.10;;;;;;;9.55;100.00;99591.80;4522934;77;21080;-90
2022/01/01 15:18:39;;;;;;;23.55;10.88;;;;;;;9.55;100.00;99602.73;4530853;77;21029;-89
2022/01/01 15:24:48;;;;;;;13.75;9.45;;;;;;;9.53;100.00;99607.78;4521890;77;21024;-93
2022/01/01 15:31:01;;;;;;;20.62;12.88;;;;;;;9.47;100.00;99613.86;4520369;77;21064;-89
2022/01/01 15:36:54;;;;;;;20.48;13.78;;;;;;;9.43;100.00;99626.63;4508540;77;21073;-93
2022/01/01 15:42:57;;;;;;;23.05;15.15;;;;;;;9.41;100.00;99639.28;4504209;77;21029;-90
2022/01/01 15:49:02;;;;;;;22.07;15.25;;;;;;;9.34;100.00;99643.20;4504097;77;21594;-91
2022/01/01 15:55:08;;;;;;;19.40;14.28;;;;;;;9.30;100.00;99651.87;4503273;79;21027;-91
2022/01/01 16:01:30;;;;;;;20.55;13.62;;;;;;;9.27;100.00;99659.40;4508956;77;21114;-89
2022/01/01 16:07:34;;;;;;;21.95;14.90;;;;;;;9.24;100.00;99665.56;4505836;77;20998;-91
2022/01/01 16:13:47;;;;;;;22.52;14.50;;;;;;;9.23;100.00;99656.35;4477580;77;21373;-90
2022/01/01 16:19:52;;;;;;;23.77;16.67;;;;;;;9.17;100.00;99650.92;4511427;77;21095;-90
2022/01/01 16:26:00;;;;;;;28.45;17.42;;;;;;;9.16;100.00;99654.22;4510591;77;21060;-90
2022/01/01 16:32:03;;;;;;;32.67;17.45;;;;;;;9.13;100.00;99659.61;4481666;77;21709;-92
2022/01/01 16:38:07;;;;;;;31.20;17.95;;;;;;;9.09;100.00;99654.61;4495577;77;21009;-90
2022/01/01 16:44:14;;;;;;;28.00;18.48;;;;;;;9.04;100.00;99665.77;4526320;77;21674;-90
2022/01/01 16:50:20;;;;;;;;;;;;;;;9.03;100.00;99665.56;4520125;77;21072;-91
2022/01/01 16:56:22;;;;;;;30.05;17.95;;;;;;;9.03;100.00;99672.39;4519617;78;20167;-90
2022/01/01 17:02:31;;;;;;;31.62;18.05;;;;;;;9.03;100.00;99686.85;4514490;78;20989;-91
2022/01/01 17:08:36;;;;;;;29.27;16.70;;;;;;;9.06;100.00;99686.16;4514654;77;20990;-89
2022/01/01 17:14:39;;;;;;;26.12;17.62;;;;;;;9.08;100.00;99692.04;4523169;77;21030;-91
2022/01/01 17:20:46;;;;;;;24.90;16.65;;;;;;;9.13;100.00;99686.92;4515948;78;21001;-90
2022/01/01 17:26:50;;;;;;;;;;;;;;;9.13;100.00;99689.06;4524124;77;21543;-90
2022/01/01 17:33:08;;;;;;;30.05;16.73;;;;;;;9.12;100.00;99686.13;4531006;77;20937;-89
2022/01/01 17:45:26;;;;;;;29.45;18.48;;;;;;;9.10;100.00;99694.42;4522414;77;21021;-92
2022/01/01 17:51:32;;;;;;;27.30;18.57;;;;;;;9.16;100.00;99699.30;4518256;77;21061;-92
2022/01/01 17:57:39;;;;;;;30.43;18.33;;;;;;;9.20;100.00;99707.59;4511071;78;21084;-92
2022/01/01 18:03:46;;;;;;;31.95;19.75;;;;;;;9.21;100.00;99714.08;4515942;77;20995;-90
2022/01/01 18:09:57;;;;;;;;;;;;;;;9.20;100.00;99716.59;4408470;77;9999722;-92
2022/01/01 18:16:00;;;;;;;29.02;18.48;;;;;;;9.20;100.00;99720.69;4525809;77;20510;-90
2022/01/01 18:22:07;;;;;;;33.35;18.80;;;;;;;9.17;100.00;99715.12;4526918;77;21030;-91
2022/01/01 18:28:19;;;;;;;;;;;;;;;9.14;100.00;99725.38;4532954;77;21012;-93
2022/01/01 18:34:21;;;;;;;31.73;19.87;;;;;;;9.12;100.00;99735.84;4518790;77;20167;-91
2022/01/01 18:40:25;;;;;;;30.68;19.65;;;;;;;9.09;100.00;99735.98;4470307;78;21023;-91
2022/01/01 18:46:27;;;;;;;34.92;21.85;;;;;;;9.10;100.00;99747.69;4460252;78;21009;-91
2022/01/01 18:53:01;;;;;;;35.90;20.82;;;;;;;9.04;100.00;99757.27;4464701;78;21056;-91
2022/01/01 18:59:06;;;;;;;31.12;20.15;;;;;;;9.03;100.00;99760.59;4467055;78;20973;-90
2022/01/01 19:05:10;;;;;;;32.05;20.52;;;;;;;9.03;100.00;99754.32;4438159;78;21045;-91
2022/01/01 19:11:17;;;;;;;36.98;22.80;;;;;;;9.01;100.00;99753.30;4463764;78;21045;-90
2022/01/01 19:17:21;;;;;;;39.58;25.08;;;;;;;8.99;100.00;99758.31;4449337;78;21112;-91
2022/01/01 19:23:27;;;;;;;40.38;25.37;;;;;;;8.98;100.00;99766.28;4466275;78;21088;-91
2022/01/01 19:29:29;;;;;;;47.17;26.45;;;;;;;8.99;100.00;99779.37;4467227;78;21061;-90
2022/01/01 19:35:32;;;;;;;49.83;28.07;;;;;;;9.02;100.00;99784.15;4460524;78;21352;-90
2022/01/01 19:41:54;;;;;;;45.63;27.98;;;;;;;9.02;100.00;99786.29;4469120;78;21100;-91
2022/01/01 19:48:08;;;;;;;47.93;29.23;;;;;;;9.01;100.00;99790.17;4464650;78;21013;-92
2022/01/01 19:54:11;;;;;;;57.40;32.60;;;;;;;8.99;100.00;99793.03;4440576;78;21029;-91
2022/01/01 20:00:16;;;;;;;53.40;29.75;;;;;;;8.96;100.00;99799.96;4460014;78;21017;-89
2022/01/01 20:06:18;;;;;;;50.90;31.48;;;;;;;8.94;100.00;99797.36;4466854;78;21068;-89
2022/01/01 20:12:20;;;;;;;51.60;30.23;;;;;;;8.92;100.00;99799.08;4465827;78;21069;-90
2022/01/01 20:18:21;;;;;;;52.88;29.42;;;;;;;8.93;100.00;99803.38;4463298;77;21049;-90
2022/01/01 20:24:23;;;;;;;50.15;30.25;;;;;;;8.94;100.00;99798.73;4470003;78;21006;-90
2022/01/01 20:30:25;;;;;;;41.05;26.75;;;;;;;8.95;100.00;99810.67;4459506;78;21026;-94
2022/01/01 20:36:27;;;;;;;43.25;26.70;;;;;;;8.96;100.00;99821.00;4495574;77;21065;-92
2022/01/01 20:42:30;;;;;;;50.45;28.62;;;;;;;8.92;100.00;99826.37;4522423;77;22474;-89
2022/01/01 20:48:31;;;;;;;52.75;28.17;;;;;;;8.90;100.00;99823.75;4519561;77;21872;-90
2022/01/01 20:54:34;;;;;;;49.45;28.12;;;;;;;8.88;100.00;99823.31;4522581;77;21049;-91
2022/01/01 21:00:40;;;;;;;48.70;27.07;;;;;;;8.87;100.00;99823.88;4473903;77;21095;-92
2022/01/01 21:06:46;;;;;;;52.58;28.35;;;;;;;8.88;100.00;99830.14;4516180;77;21018;-91
2022/01/01 21:12:51;;;;;;;44.63;27.13;;;;;;;8.85;100.00;99831.61;4520886;77;21006;-88
2022/01/01 21:18:53;;;;;;;47.13;26.10;;;;;;;8.82;100.00;99830.93;4519735;77;21596;-88
2022/01/01 21:24:56;;;;;;;45.08;26.33;;;;;;;8.81;100.00;99830.72;4518027;77;21084;-90
2022/01/01 21:31:00;;;;;;;44.30;24.12;;;;;;;8.79;100.00;99830.81;4518120;77;21707;-90
2022/01/01 21:37:03;;;;;;;37.73;23.18;;;;;;;8.77;100.00;99830.38;4500557;77;21092;-90
2022/01/01 21:43:12;;;;;;;38.58;22.93;;;;;;;8.75;100.00;99828.00;4466304;78;21057;-92
2022/01/01 21:49:11;;;;;;;42.08;23.20;;;;;;;8.72;100.00;99835.48;4468511;78;21115;-91
2022/01/01 21:55:13;;;;;;;41.85;23.07;;;;;;;8.70;100.00;99845.16;4462758;78;21060;-89
2022/01/01 22:01:14;;;;;;;39.45;24.05;;;;;;;8.68;100.00;99845.50;4468444;78;22016;-90
2022/01/01 22:07:17;;;;;;;38.35;22.15;;;;;;;8.68;100.00;99845.50;4466727;78;21093;-91
2022/01/01 22:13:19;;;;;;;43.73;23.55;;;;;;;8.70;100.00;99841.06;4469408;78;21667;-90
2022/01/01 22:19:20;;;;;;;42.70;25.23;;;;;;;8.71;100.00;99850.27;4464691;78;21060;-89
2022/01/01 22:25:22;;;;;;;49.93;27.62;;;;;;;8.71;100.00;99847.55;4463639;78;21057;-90
2022/01/01 22:31:24;;;;;;;50.43;28.60;;;;;;;8.72;100.00;99854.59;4468304;78;21119;-91
2022/01/01 22:37:25;;;;;;;53.70;27.10;;;;;;;8.72;100.00;99842.30;4498737;77;21049;-91
2022/01/01 22:43:27;;;;;;;49.73;26.48;;;;;;;8.73;100.00;99856.75;4519733;77;20994;-89
2022/01/01 22:49:28;;;;;;;49.53;27.70;;;;;;;8.73;100.00;99855.39;4519642;77;21034;-90
2022/01/01 22:55:30;;;;;;;52.23;28.42;;;;;;;8.73;100.00;99850.73;4516650;77;21120;-90
2022/01/01 23:01:31;;;;;;;53.28;28.07;;;;;;;8.73;100.00;99845.84;4521721;77;21009;-90
2022/01/01 23:07:33;;;;;;;51.20;29.55;;;;;;;8.73;100.00;99837.09;4525188;77;21087;-92
2022/01/01 23:13:35;;;;;;;51.15;29.95;;;;;;;8.73;100.00;99834.36;4521272;77;21370;-90
2022/01/01 23:19:37;;;;;;;49.33;28.83;;;;;;;8.73;100.00;99848.56;4520221;77;21076;-90
2022/01/01 23:25:49;;;;;;;56.48;30.08;;;;;;;8.72;100.00;99840.94;4518797;77;21539;-89
2022/01/01 23:31:50;;;;;;;49.93;28.38;;;;;;;8.72;100.00;99836.06;4523350;77;21064;-89
2022/01/01 23:37:52;;;;;;;45.80;26.85;;;;;;;8.70;100.00;99832.31;4521943;77;21509;-92
2022/01/01 23:43:55;;;;;;;48.15;27.93;;;;;;;8.68;100.00;99825.03;4526182;77;21051;-91
2022/01/01 23:49:56;;;;;;;48.38;26.82;;;;;;;8.68;100.00;99824.22;4529441;77;21025;-90
2022/01/01 23:56:03;;;;;;;47.67;27.25;;;;;;;8.67;100.00;99829.47;4527500;77;21033;-90
